createdAt,value
2023-02-08T00:00:16.587Z,15.87
2023-02-08T00:02:44.079Z,18.60
2023-02-08T00:05:11.223Z,17.15
2023-02-08T00:07:38.457Z,16.35
2023-02-08T00:10:07.488Z,15.77
2023-02-08T00:12:35.032Z,19.37
2023-02-08T00:15:03.696Z,15.88
2023-02-08T00:17:31.098Z,18.48
2023-02-08T00:19:58.283Z,19.30
2023-02-08T00:22:25.678Z,24.33
2023-02-08T00:24:52.691Z,16.83
2023-02-08T00:27:19.712Z,17.42
2023-02-08T00:29:48.203Z,17.92
2023-02-08T00:32:17.061Z,18.73
2023-02-08T00:34:44.035Z,17.10
2023-02-08T00:37:11.099Z,20.70
2023-02-08T00:39:38.482Z,58.65
2023-02-08T00:42:05.712Z,28.10
2023-02-08T00:44:32.768Z,20.45
2023-02-08T00:46:59.767Z,22.65
2023-02-08T00:49:28.364Z,24.33
2023-02-08T00:51:55.334Z,26.17
2023-02-08T00:54:22.508Z,25.67
2023-02-08T00:56:49.676Z,21.27
2023-02-08T00:59:16.748Z,19.13
2023-02-08T01:01:44.002Z,17.97
2023-02-08T01:04:11.245Z,9.93
2023-02-08T01:06:39.779Z,16.38
2023-02-08T01:09:06.760Z,12.43
2023-02-08T01:11:34.154Z,14.80
2023-02-08T01:14:03.482Z,15.87
2023-02-08T01:16:31.760Z,12.02
2023-02-08T01:18:59.840Z,9.68
2023-02-08T01:21:28.363Z,10.52
2023-02-08T01:23:56.880Z,10.25
2023-02-08T01:26:24.790Z,15.00
2023-02-08T01:28:54.282Z,19.13
2023-02-08T01:31:22.807Z,17.55
2023-02-08T01:33:50.284Z,19.10
2023-02-08T01:36:17.465Z,20.33
2023-02-08T01:38:45.029Z,19.73
2023-02-08T01:41:14.205Z,21.33
2023-02-08T01:43:56.394Z,21.15
2023-02-08T01:46:23.458Z,16.27
2023-02-08T01:48:51.005Z,16.50
2023-02-08T01:51:20.588Z,16.30
2023-02-08T01:53:49.290Z,16.95
2023-02-08T01:56:21.074Z,17.23
2023-02-08T01:58:49.953Z,13.38
2023-02-08T02:01:17.343Z,12.63
2023-02-08T02:03:44.935Z,13.27
2023-02-08T02:06:14.601Z,13.82
2023-02-08T02:08:44.774Z,15.63
2023-02-08T02:11:11.834Z,16.92
2023-02-08T02:13:40.641Z,17.92
2023-02-08T02:16:07.873Z,18.43
2023-02-08T02:18:37.018Z,18.95
2023-02-08T02:21:09.859Z,19.55
2023-02-08T02:23:54.153Z,18.00
2023-02-08T02:26:35.747Z,19.60
2023-02-08T02:29:21.222Z,28.47
2023-02-08T02:31:57.596Z,29.02
2023-02-08T02:34:29.119Z,27.10
2023-02-08T02:37:02.161Z,16.98
2023-02-08T02:39:33.889Z,14.85
2023-02-08T02:42:23.983Z,16.13
2023-02-08T02:44:54.032Z,15.35
2023-02-08T02:47:24.436Z,19.05
2023-02-08T02:49:55.079Z,28.20
2023-02-08T02:52:26.310Z,36.03
2023-02-08T02:54:54.428Z,25.70
2023-02-08T02:57:24.657Z,47.75
2023-02-08T02:59:53.927Z,22.30
2023-02-08T03:02:21.265Z,19.35
2023-02-08T03:04:50.067Z,16.75
2023-02-08T03:07:22.442Z,16.40
2023-02-08T03:09:55.577Z,12.88
2023-02-08T03:12:31.375Z,10.00
2023-02-08T03:14:59.761Z,18.15
2023-02-08T03:17:34.626Z,16.13
2023-02-08T03:20:06.970Z,15.00
2023-02-08T03:22:46.202Z,17.02
2023-02-08T03:25:18.054Z,16.23
2023-02-08T03:27:49.401Z,17.75
2023-02-08T03:30:20.760Z,17.00
2023-02-08T03:32:51.354Z,14.97
2023-02-08T03:35:20.359Z,15.32
2023-02-08T03:37:52.418Z,16.80
2023-02-08T03:40:23.323Z,18.90
2023-02-08T03:42:51.578Z,22.42
2023-02-08T03:45:20.810Z,21.80
2023-02-08T03:47:49.196Z,21.23
2023-02-08T03:50:17.971Z,17.83
2023-02-08T03:52:52.880Z,18.48
2023-02-08T03:55:21.974Z,17.88
2023-02-08T03:57:52.282Z,16.73
2023-02-08T04:00:21.829Z,18.42
2023-02-08T04:02:51.439Z,19.13
2023-02-08T04:05:19.306Z,17.50
2023-02-08T04:07:46.436Z,15.75
2023-02-08T04:10:16.333Z,12.00
2023-02-08T04:12:48.511Z,14.95
2023-02-08T04:15:16.050Z,15.07
2023-02-08T04:17:43.138Z,14.20
2023-02-08T04:20:10.876Z,16.10
2023-02-08T04:22:39.922Z,13.70
2023-02-08T04:25:07.209Z,17.50
2023-02-08T04:27:35.824Z,14.27
2023-02-08T04:30:02.989Z,15.38
2023-02-08T04:32:31.910Z,13.35
2023-02-08T04:34:58.863Z,14.60
2023-02-08T04:37:25.971Z,13.15
2023-02-08T04:39:52.964Z,8.20
2023-02-08T04:42:20.525Z,12.40
2023-02-08T04:44:49.169Z,13.75
2023-02-08T04:47:16.230Z,15.40
2023-02-08T04:49:44.200Z,15.88
2023-02-08T04:52:11.184Z,14.00
2023-02-08T04:54:40.736Z,15.80
2023-02-08T04:57:09.168Z,20.17
2023-02-08T04:59:36.146Z,17.77
2023-02-08T05:02:04.681Z,17.98
2023-02-08T05:04:32.119Z,16.65
2023-02-08T05:06:59.264Z,16.13
2023-02-08T05:09:26.244Z,17.75
2023-02-08T05:11:53.313Z,16.20
2023-02-08T05:14:20.310Z,15.70
2023-02-08T05:16:47.340Z,14.55
2023-02-08T05:19:16.055Z,13.52
2023-02-08T05:21:43.766Z,14.43
2023-02-08T05:24:12.673Z,15.97
2023-02-08T05:26:40.197Z,20.20
2023-02-08T05:29:07.474Z,15.35
2023-02-08T05:31:34.591Z,18.33
2023-02-08T05:34:01.715Z,12.63
2023-02-08T05:36:31.601Z,12.97
2023-02-08T05:38:58.604Z,16.80
2023-02-08T05:41:25.639Z,13.27
2023-02-08T05:43:52.667Z,14.55
2023-02-08T05:46:19.728Z,14.55
2023-02-08T05:48:46.804Z,14.87
2023-02-08T05:51:14.333Z,14.88
2023-02-08T05:53:43.693Z,13.85
2023-02-08T05:56:10.884Z,16.00
2023-02-08T05:58:38.345Z,12.52
2023-02-08T06:01:08.272Z,15.97
2023-02-08T06:03:35.547Z,15.68
2023-02-08T06:06:02.626Z,16.95
2023-02-08T06:08:29.931Z,16.13
2023-02-08T06:10:58.575Z,19.38
2023-02-08T06:13:25.768Z,17.97
2023-02-08T06:15:52.755Z,10.85
2023-02-08T06:18:23.376Z,12.15
2023-02-08T06:20:54.895Z,15.05
2023-02-08T06:23:23.676Z,15.77
2023-02-08T06:25:51.031Z,16.13
2023-02-08T06:28:19.863Z,17.42
2023-02-08T06:30:48.738Z,16.08
2023-02-08T06:33:16.437Z,16.50
2023-02-08T06:35:44.894Z,17.33
2023-02-08T06:38:12.184Z,16.60
2023-02-08T06:40:39.855Z,16.52
2023-02-08T06:43:07.162Z,17.90
2023-02-08T06:45:35.731Z,14.88
2023-02-08T06:48:03.070Z,15.88
2023-02-08T06:50:31.910Z,11.67
2023-02-08T06:52:59.658Z,19.65
2023-02-08T06:55:26.820Z,14.50
2023-02-08T06:57:54.189Z,7.68
2023-02-08T07:00:22.495Z,15.15
2023-02-08T07:02:52.642Z,13.20
2023-02-08T07:05:20.198Z,9.95
2023-02-08T07:07:49.303Z,9.38
2023-02-08T07:10:17.105Z,8.65
2023-02-08T07:12:56.555Z,17.58
2023-02-08T07:15:23.923Z,10.97
2023-02-08T07:17:52.598Z,17.58
2023-02-08T07:20:23.327Z,16.60
2023-02-08T07:22:50.742Z,14.13
2023-02-08T07:25:18.056Z,15.02
2023-02-08T07:27:45.242Z,18.67
2023-02-08T07:30:14.246Z,22.85
2023-02-08T07:32:44.953Z,17.23
2023-02-08T07:35:13.774Z,10.88
2023-02-08T07:37:40.740Z,18.70
2023-02-08T07:40:09.499Z,15.93
2023-02-08T07:42:38.458Z,18.98
2023-02-08T07:45:05.855Z,11.63
2023-02-08T07:47:32.898Z,19.40
2023-02-08T07:50:03.063Z,17.38
2023-02-08T07:52:35.201Z,16.40
2023-02-08T07:55:05.265Z,13.55
2023-02-08T07:57:38.642Z,15.80
2023-02-08T08:00:07.990Z,10.32
2023-02-08T08:02:35.610Z,15.55
2023-02-08T08:05:02.650Z,12.43
2023-02-08T08:07:29.756Z,11.50
2023-02-08T08:09:59.103Z,9.38
2023-02-08T08:12:28.075Z,8.52
2023-02-08T08:14:55.414Z,11.05
2023-02-08T08:17:22.478Z,19.80
2023-02-08T08:19:50.094Z,13.93
2023-02-08T08:22:17.180Z,20.63
2023-02-08T08:24:44.380Z,18.52
2023-02-08T08:27:13.029Z,8.73
2023-02-08T08:29:41.493Z,11.97
2023-02-08T08:32:10.314Z,12.07
2023-02-08T08:34:38.986Z,16.90
2023-02-08T08:37:06.212Z,19.92
2023-02-08T08:39:33.550Z,11.15
2023-02-08T08:42:12.788Z,16.60
2023-02-08T08:44:43.269Z,17.85
2023-02-08T08:47:10.612Z,17.95
2023-02-08T08:49:38.577Z,17.52
2023-02-08T08:52:07.980Z,9.02
2023-02-08T08:54:35.241Z,15.73
2023-02-08T08:57:02.460Z,18.92
2023-02-08T08:59:30.952Z,19.38
2023-02-08T09:01:59.892Z,11.32
2023-02-08T09:04:27.194Z,18.20
2023-02-08T09:06:54.194Z,14.50
2023-02-08T09:09:21.881Z,19.02
2023-02-08T09:11:49.449Z,20.90
2023-02-08T09:14:16.471Z,17.48
2023-02-08T09:16:47.632Z,20.48
2023-02-08T09:19:19.721Z,16.40
2023-02-08T09:21:48.432Z,21.77
2023-02-08T09:24:20.632Z,20.00
2023-02-08T09:26:47.966Z,21.52
2023-02-08T09:29:15.428Z,22.02
2023-02-08T09:31:43.073Z,17.10
2023-02-08T09:34:10.449Z,21.02
2023-02-08T09:36:39.821Z,21.67
2023-02-08T09:39:08.553Z,15.05
2023-02-08T09:41:46.909Z,11.88
2023-02-08T09:44:19.993Z,17.60
2023-02-08T09:46:50.119Z,19.88
2023-02-08T09:49:23.395Z,13.48
2023-02-08T09:51:54.433Z,22.15
2023-02-08T09:54:34.283Z,12.52
2023-02-08T09:57:02.857Z,16.97
2023-02-08T09:59:30.924Z,21.50
2023-02-08T10:02:04.658Z,19.52
2023-02-08T10:04:38.206Z,18.90
2023-02-08T10:07:06.835Z,16.65
2023-02-08T10:09:33.900Z,13.93
2023-02-08T10:12:06.955Z,16.90
2023-02-08T10:14:40.499Z,17.70
2023-02-08T10:17:15.907Z,12.82
2023-02-08T10:19:50.591Z,21.90
2023-02-08T10:22:25.059Z,13.27
2023-02-08T10:25:34.803Z,15.90
2023-02-08T10:28:16.048Z,16.63
2023-02-08T10:30:49.884Z,20.42
2023-02-08T10:33:18.732Z,15.10
2023-02-08T10:35:48.044Z,12.67
2023-02-08T10:38:24.982Z,17.23
2023-02-08T10:40:54.322Z,19.73
2023-02-08T10:43:24.744Z,16.70
2023-02-08T10:45:54.374Z,18.73
2023-02-08T10:48:27.845Z,16.17
2023-02-08T10:50:55.466Z,14.02
2023-02-08T10:53:35.841Z,16.05
2023-02-08T10:56:07.151Z,15.10
2023-02-08T10:58:34.191Z,17.92
2023-02-08T11:01:01.472Z,18.50
2023-02-08T11:03:33.038Z,18.55
2023-02-08T11:06:03.323Z,16.80
2023-02-08T11:09:08.322Z,17.23
2023-02-08T11:11:49.220Z,14.93
2023-02-08T11:14:16.855Z,14.63
2023-02-08T11:16:49.506Z,16.15
2023-02-08T11:19:30.552Z,19.15
2023-02-08T11:22:36.295Z,16.58
2023-02-08T11:25:06.904Z,18.77
2023-02-08T11:27:36.624Z,19.52
2023-02-08T11:30:19.189Z,18.77
2023-02-08T11:32:46.980Z,18.40
2023-02-08T11:35:22.008Z,15.30
2023-02-08T11:37:49.749Z,15.23
2023-02-08T11:40:21.688Z,14.70
2023-02-08T11:42:50.441Z,18.67
2023-02-08T11:45:20.472Z,17.95
2023-02-08T11:47:48.523Z,17.05
2023-02-08T11:50:24.087Z,18.45
2023-02-08T11:52:55.017Z,16.35
2023-02-08T11:55:24.637Z,16.83
2023-02-08T11:57:55.153Z,16.98
2023-02-08T12:00:24.144Z,15.95
2023-02-08T12:02:51.709Z,16.92
2023-02-08T12:05:21.119Z,13.75
2023-02-08T12:07:57.053Z,14.57
2023-02-08T12:10:45.795Z,17.23
2023-02-08T12:13:30.933Z,15.73
2023-02-08T12:16:07.718Z,15.35
2023-02-08T12:18:52.421Z,13.75
2023-02-08T12:21:22.052Z,14.82
2023-02-08T12:23:50.935Z,14.77
2023-02-08T12:26:20.767Z,14.35
2023-02-08T12:28:56.356Z,10.52
2023-02-08T12:31:32.321Z,14.13
2023-02-08T12:34:05.562Z,15.02
2023-02-08T12:36:39.802Z,13.75
2023-02-08T12:39:29.635Z,10.50
2023-02-08T12:42:06.556Z,11.90
2023-02-08T12:44:37.946Z,10.77
2023-02-08T12:47:15.287Z,13.13
2023-02-08T12:49:48.038Z,10.73
2023-02-08T12:52:19.543Z,10.55
2023-02-08T12:54:48.876Z,12.93
2023-02-08T12:57:18.079Z,9.48
2023-02-08T12:59:47.979Z,15.05
2023-02-08T13:02:19.548Z,13.75
2023-02-08T13:04:48.162Z,10.27
2023-02-08T13:07:21.317Z,11.63
2023-02-08T13:09:55.886Z,13.30
2023-02-08T13:12:26.601Z,13.55
2023-02-08T13:14:58.408Z,13.13
2023-02-08T13:17:29.200Z,11.60
2023-02-08T13:20:00.369Z,15.20
2023-02-08T13:22:30.582Z,11.77
2023-02-08T13:25:07.033Z,15.52
2023-02-08T13:27:34.611Z,10.82
2023-02-08T13:30:02.671Z,14.88
2023-02-08T13:32:34.816Z,13.60
2023-02-08T13:35:03.276Z,13.48
2023-02-08T13:37:32.239Z,12.77
2023-02-08T13:40:01.189Z,8.73
2023-02-08T13:42:29.771Z,12.75
2023-02-08T13:44:58.099Z,15.15
2023-02-08T13:47:26.911Z,10.10
2023-02-08T13:50:00.232Z,16.83
2023-02-08T13:52:48.745Z,15.23
2023-02-08T13:55:36.320Z,14.90
2023-02-08T13:58:04.247Z,12.30
2023-02-08T14:00:32.099Z,13.88
2023-02-08T14:03:00.300Z,14.43
2023-02-08T14:05:40.918Z,16.63
2023-02-08T14:08:12.035Z,14.02
2023-02-08T14:10:40.928Z,14.02
2023-02-08T14:13:16.412Z,14.17
2023-02-08T14:15:43.938Z,15.48
2023-02-08T14:18:22.691Z,16.27
2023-02-08T14:20:59.456Z,15.18
2023-02-08T14:23:27.050Z,15.02
2023-02-08T14:25:55.808Z,15.73
2023-02-08T14:28:25.074Z,15.38
2023-02-08T14:30:54.537Z,14.10
2023-02-08T14:33:25.415Z,13.70
2023-02-08T14:35:54.162Z,12.23
2023-02-08T14:38:53.957Z,16.30
2023-02-08T14:41:39.893Z,11.18
2023-02-08T14:44:33.577Z,8.15
2023-02-08T14:47:02.077Z,15.88
2023-02-08T14:49:35.561Z,19.75
2023-02-08T14:52:04.265Z,18.65
2023-02-08T14:54:34.014Z,12.90
2023-02-08T14:57:02.648Z,15.90
2023-02-08T14:59:30.808Z,14.13
2023-02-08T15:02:00.162Z,17.85
2023-02-08T15:04:29.491Z,13.83
2023-02-08T15:07:06.135Z,19.00
2023-02-08T15:09:36.840Z,18.83
2023-02-08T15:12:05.659Z,16.35
2023-02-08T15:14:34.918Z,16.90
2023-02-08T15:17:04.254Z,18.40
2023-02-08T15:19:38.544Z,16.88
2023-02-08T15:22:19.252Z,19.40
2023-02-08T15:24:49.847Z,19.15
2023-02-08T15:27:20.027Z,18.52
2023-02-08T15:29:48.857Z,19.25
2023-02-08T15:32:17.905Z,17.00
2023-02-08T15:34:48.463Z,19.20
2023-02-08T15:37:16.140Z,18.20
2023-02-08T15:39:46.078Z,16.52
2023-02-08T15:42:17.595Z,15.02
2023-02-08T15:44:44.651Z,13.35
2023-02-08T15:47:15.289Z,12.95
2023-02-08T15:49:46.092Z,13.77
2023-02-08T15:52:16.480Z,13.40
2023-02-08T15:54:43.877Z,12.57
2023-02-08T15:57:19.242Z,11.27
2023-02-08T15:59:47.719Z,8.57
2023-02-08T16:02:20.414Z,8.05
2023-02-08T16:04:47.556Z,10.05
2023-02-08T16:07:22.868Z,10.40
2023-02-08T16:09:52.313Z,10.52
2023-02-08T16:12:21.093Z,10.52
2023-02-08T16:14:52.742Z,11.55
2023-02-08T16:17:44.034Z,10.95
2023-02-08T16:20:22.857Z,11.35
2023-02-08T16:22:57.210Z,10.02
2023-02-08T16:25:25.531Z,9.90
2023-02-08T16:27:52.738Z,10.50
2023-02-08T16:30:20.915Z,9.68
2023-02-08T16:32:49.316Z,9.83
2023-02-08T16:35:21.857Z,10.18
2023-02-08T16:37:53.716Z,10.40
2023-02-08T16:40:36.673Z,12.98
2023-02-08T16:43:17.635Z,19.20
2023-02-08T16:45:44.943Z,25.53
2023-02-08T16:48:28.767Z,30.85
2023-02-08T16:50:55.951Z,39.45
2023-02-08T16:53:28.122Z,38.45
2023-02-08T16:56:00.767Z,40.50
2023-02-08T16:58:29.304Z,36.77
2023-02-08T17:00:57.937Z,34.40
2023-02-08T17:03:25.701Z,42.30
2023-02-08T17:05:53.662Z,30.92
2023-02-08T17:08:21.314Z,33.22
2023-02-08T17:10:51.914Z,36.40
2023-02-08T17:13:21.230Z,44.70
2023-02-08T17:15:50.486Z,51.80
2023-02-08T17:18:17.716Z,33.53
2023-02-08T17:20:46.555Z,32.08
2023-02-08T17:23:15.945Z,32.20
2023-02-08T17:25:43.595Z,31.17
2023-02-08T17:28:14.348Z,32.78
2023-02-08T17:30:42.516Z,32.45
2023-02-08T17:33:17.950Z,33.05
2023-02-08T17:35:46.746Z,31.00
2023-02-08T17:38:15.569Z,27.98
2023-02-08T17:40:43.259Z,19.38
2023-02-08T17:43:10.982Z,18.73
2023-02-08T17:45:39.951Z,22.83
2023-02-08T17:48:07.302Z,19.17
2023-02-08T17:50:37.070Z,20.80
2023-02-08T17:53:04.733Z,24.90
2023-02-08T17:55:32.044Z,24.45
2023-02-08T17:57:59.057Z,22.48
2023-02-08T18:00:29.547Z,25.37
2023-02-08T18:03:00.506Z,22.92
2023-02-08T18:05:30.798Z,22.88
2023-02-08T18:07:59.488Z,22.45
2023-02-08T18:10:30.860Z,23.08
2023-02-08T18:12:59.161Z,22.63
2023-02-08T18:15:27.359Z,23.75
2023-02-08T18:17:54.654Z,25.10
2023-02-08T18:20:22.098Z,22.00
2023-02-08T18:22:49.482Z,21.83
2023-02-08T18:25:19.156Z,19.70
2023-02-08T18:27:46.839Z,18.55
2023-02-08T18:30:14.341Z,19.90
2023-02-08T18:32:42.792Z,18.95
2023-02-08T18:35:10.444Z,19.65
2023-02-08T18:37:38.136Z,19.10
2023-02-08T18:40:09.826Z,19.10
2023-02-08T18:42:39.694Z,19.35
2023-02-08T18:45:07.123Z,20.00
2023-02-08T18:47:34.792Z,21.05
2023-02-08T18:50:02.499Z,23.47
2023-02-08T18:52:31.569Z,34.90
2023-02-08T18:54:59.116Z,35.97
2023-02-08T18:57:26.480Z,42.67
2023-02-08T18:59:56.107Z,43.65
2023-02-08T19:02:23.973Z,44.27
2023-02-08T19:04:51.352Z,45.58
2023-02-08T19:07:18.682Z,47.42
2023-02-08T19:09:47.559Z,46.60
2023-02-08T19:12:16.399Z,46.83
2023-02-08T19:14:44.056Z,43.57
2023-02-08T19:17:14.778Z,44.75
2023-02-08T19:19:42.341Z,42.47
2023-02-08T19:22:09.838Z,36.83
2023-02-08T19:24:38.180Z,35.90
2023-02-08T19:27:06.092Z,36.00
2023-02-08T19:29:34.679Z,35.58
2023-02-08T19:32:02.405Z,34.83
2023-02-08T19:34:31.124Z,35.67
2023-02-08T19:36:58.441Z,34.42
2023-02-08T19:39:27.147Z,33.63
2023-02-08T19:41:54.865Z,34.10
2023-02-08T19:44:25.081Z,34.88
2023-02-08T19:46:53.293Z,37.05
2023-02-08T19:49:21.463Z,34.15
2023-02-08T19:51:50.120Z,35.27
2023-02-08T19:54:18.734Z,38.25
2023-02-08T19:56:45.967Z,37.58
2023-02-08T19:59:16.869Z,34.85
2023-02-08T20:01:44.784Z,35.38
2023-02-08T20:04:12.918Z,35.63
2023-02-08T20:06:40.738Z,32.70
2023-02-08T20:09:09.419Z,31.00
2023-02-08T20:11:51.216Z,30.30
2023-02-08T20:14:23.417Z,25.35
2023-02-08T20:16:50.888Z,21.07
2023-02-08T20:19:17.978Z,32.33
2023-02-08T20:21:45.455Z,29.55
2023-02-08T20:24:14.820Z,27.88
2023-02-08T20:26:42.896Z,26.75
2023-02-08T20:29:10.334Z,27.10
2023-02-08T20:31:38.551Z,30.48
2023-02-08T20:34:06.870Z,30.05
2023-02-08T20:36:40.670Z,31.30
2023-02-08T20:39:09.210Z,29.15
2023-02-08T20:41:38.621Z,27.03
2023-02-08T20:44:06.512Z,24.40
2023-02-08T20:46:34.893Z,26.23
2023-02-08T20:49:02.985Z,26.35
2023-02-08T20:51:30.889Z,25.13
2023-02-08T20:53:58.788Z,22.97
2023-02-08T20:56:27.049Z,22.58
2023-02-08T20:58:55.541Z,22.65
2023-02-08T21:01:24.083Z,22.52
2023-02-08T21:03:52.932Z,23.77
2023-02-08T21:06:21.656Z,24.47
2023-02-08T21:08:52.580Z,24.35
2023-02-08T21:11:20.325Z,27.55
2023-02-08T21:13:47.509Z,27.77
2023-02-08T21:16:16.482Z,31.83
2023-02-08T21:18:43.818Z,30.87
2023-02-08T21:21:11.255Z,31.02
2023-02-08T21:23:38.428Z,32.08
2023-02-08T21:26:06.546Z,35.88
2023-02-08T21:28:33.974Z,31.97
2023-02-08T21:31:02.812Z,31.67
2023-02-08T21:33:31.398Z,30.38
2023-02-08T21:36:01.480Z,22.35
2023-02-08T21:38:28.729Z,23.13
2023-02-08T21:40:56.013Z,23.67
2023-02-08T21:43:23.133Z,18.60
2023-02-08T21:45:50.273Z,37.80
2023-02-08T21:48:17.390Z,136.60
2023-02-08T21:51:16.580Z,39.78
2023-02-08T21:54:03.458Z,33.80
2023-02-08T21:56:30.553Z,28.30
2023-02-08T21:58:57.848Z,25.20
2023-02-08T22:01:25.048Z,29.13
2023-02-08T22:03:52.235Z,22.90
2023-02-08T22:06:39.325Z,21.60
2023-02-08T22:09:06.455Z,18.88
2023-02-08T22:11:33.553Z,19.63
2023-02-08T22:14:00.654Z,17.25
2023-02-08T22:16:27.716Z,16.70
2023-02-08T22:18:54.985Z,15.60
2023-02-08T22:21:23.422Z,15.90
2023-02-08T22:23:50.451Z,15.20
2023-02-08T22:26:17.498Z,15.80
2023-02-08T22:28:44.589Z,16.90
2023-02-08T22:31:13.079Z,17.00
2023-02-08T22:33:40.709Z,16.90
2023-02-08T22:40:14.498Z,15.95
2023-02-08T22:42:42.291Z,15.70
2023-02-08T22:45:09.837Z,15.57
2023-02-08T22:47:37.580Z,14.10
2023-02-08T22:50:06.441Z,16.65
2023-02-08T22:52:34.679Z,15.07
2023-02-08T22:55:04.077Z,16.75
2023-02-08T22:57:32.804Z,14.50
2023-02-08T23:00:00.256Z,13.63
2023-02-08T23:02:27.365Z,17.33
2023-02-08T23:04:54.516Z,18.48
2023-02-08T23:07:21.686Z,16.92
2023-02-08T23:09:48.723Z,17.03
2023-02-08T23:12:15.803Z,14.70
2023-02-08T23:14:44.284Z,14.48
2023-02-08T23:17:11.775Z,15.93
2023-02-08T23:19:40.911Z,15.60
2023-02-08T23:22:08.576Z,18.03
2023-02-08T23:24:35.622Z,17.60
2023-02-08T23:27:02.817Z,20.77
2023-02-08T23:29:30.149Z,18.17
2023-02-08T23:31:58.666Z,14.50
2023-02-08T23:34:25.790Z,13.93
2023-02-08T23:36:52.982Z,13.18
2023-02-08T23:39:20.003Z,13.07
2023-02-08T23:41:47.112Z,12.57
2023-02-08T23:44:14.176Z,15.07
2023-02-08T23:46:41.291Z,12.40
2023-02-08T23:49:09.846Z,12.57
2023-02-08T23:51:37.013Z,13.07
2023-02-08T23:54:04.286Z,12.98
2023-02-08T23:56:32.193Z,12.55
2023-02-08T23:58:59.864Z,14.63
